Tropical Cyclones
[Index]
Main Index Home Page Stock Weather Photos Extreme Storms Discussion Storm News and Storm Chasing Reports Tropical Cyclones / Hurricanes / Typhoons Weather Data and Links Wild Fires / Bushfires Weather Observation Techniques Weather Picture Catalogue Tornado Pictures and Reports Stock Video Footage and DVDs for sale
Season 2005-2006 Tropical Cyclone DARYL Track Map
Season 2005-2006 Summaries (Operational Data): [AU] [SIO] [SPAC] [SH]
<<- Previous TC | 2005-2006 Season | Next TC ->>

click for intensity scale information  Lat/long Grid: Show Hide

 Date Labels: Show Hide

Operational Tropical Cyclone Data : JTWC Advisories | BoM Warnings

Name: DARYL
Number: 0608

17 Jan 2006 04:00 UTC to 23 Jan 2006 06:00 UTC

    date/time    lat    long     hPa   cat  kts
2006-01-17 04   16.0   126.0     998         25          
2006-01-17 07   16.0   126.0     995         25          
2006-01-17 12   15.5   124.7     995         25          
2006-01-17 18   15.5   124.7     995         25          
2006-01-18 00   15.5   124.4     994         25          
2006-01-18 06   15.5   124.4     992         30          
2006-01-18 12   16.2   123.0     990    1    35          
2006-01-18 18   15.8   122.8     984    1    40          
2006-01-19 00   16.1   122.6     980    2    50          
2006-01-19 06   16.5   121.8     976    2    50          
2006-01-19 12   16.8   121.9     976    2    50          
2006-01-19 18   16.8   121.5     975    2    50          
2006-01-20 00   17.4   120.7     970    2    60          
2006-01-20 06   18.1   120.5     975    2    50          
2006-01-20 12   18.5   119.9     975    2    50          
2006-01-20 15   18.7   118.3     970    2    60          
2006-01-20 18   19.0   117.7     965    3    65          
2006-01-21 00   19.5   116.6     965    3    65          
2006-01-21 06   19.5   116.2     975    2    55          
2006-01-21 12   19.9   115.9     978    2    50          
2006-01-21 18   20.1   115.4     980    2    50          
2006-01-22 00   20.3   114.7     984    2    50          
2006-01-22 06   20.4   114.1     986    1    45          
2006-01-22 12   20.7   113.2     988    1    40          
2006-01-22 18   20.9   112.4     988    1    40          
2006-01-23 00   21.9   111.7     988    1    40          
2006-01-23 06   23.2   110.2     990         30          
Winds are 10-min average.

Tropical cyclone tracks developed by Michael Bath using operational warnings and advisories and Google Maps.


[Australian Severe Weather index] [Copyright Notice] [Email Contacts] [Search This Site] [Privacy Policy]
Document: tropical_cyclone_daryl.htm Updated: 28 May 2013